Montreal, Canada
Current Conditions -  °F | °C
As of 3:00 PM on Wednesday 26 Nov 2014 (Local Time) from CYHU Reporting Station
Overcast Overcast  
Wind Chill: 27°   Ceiling: 12000
Heat Index: 32°   Visibility: 9mi
Dew Point: 23°   Wind: 5mph
Humidity: 69%   Direction: 30°NNE
Pressure: 30.19"   Gusts: NA
Location:  45.51°N, 73.55°W
Report Text: CYHU 262000Z AUTO 03004KT 9SM OVC120 M00/M05 A3019 RMK SLP224
Loading
Personal Weather Stations






























Interactive Weather Map New forecast layout! Learn more

10-Day Weather Forecast

Advertisements
Track Severe Weather on mobile